createdAt,value
2023-04-30T00:02:10.589Z,96309.03
2023-04-30T00:04:36.927Z,96306.34
2023-04-30T00:07:03.356Z,96307.41
2023-04-30T00:09:29.657Z,96307.28
2023-04-30T00:11:55.971Z,96299.16
2023-04-30T00:14:22.294Z,96303.66
2023-04-30T00:16:48.632Z,96302.78
2023-04-30T00:19:15.341Z,96293.09
2023-04-30T00:21:41.646Z,96291.75
2023-04-30T00:24:07.958Z,96291.22
2023-04-30T00:26:34.279Z,96286.53
2023-04-30T00:29:00.604Z,96285.09
2023-04-30T00:31:26.920Z,96282.72
2023-04-30T00:33:53.232Z,96289.28
2023-04-30T00:36:19.582Z,96288.84
2023-04-30T00:38:45.897Z,96293.81
2023-04-30T00:41:12.197Z,96286.25
2023-04-30T00:43:38.513Z,96286.59
2023-04-30T00:46:04.942Z,96282.00
2023-04-30T00:48:31.249Z,96281.50
2023-04-30T00:50:57.570Z,96281.59
2023-04-30T00:53:23.870Z,96274.78
2023-04-30T00:55:50.182Z,96285.34
2023-04-30T00:58:16.521Z,96273.78
2023-04-30T01:00:42.820Z,96271.69
2023-04-30T01:03:09.167Z,96276.00
2023-04-30T01:05:35.561Z,96270.13
2023-04-30T01:08:01.851Z,96257.66
2023-04-30T01:10:28.152Z,96255.50
2023-04-30T01:12:54.507Z,96256.94
2023-04-30T01:15:20.814Z,96245.69
2023-04-30T01:17:47.147Z,96261.00
2023-04-30T01:20:13.489Z,96254.38
2023-04-30T01:22:39.789Z,96253.59
2023-04-30T01:25:06.121Z,96259.44
2023-04-30T01:27:32.442Z,96249.91
2023-04-30T01:29:58.750Z,96252.78
2023-04-30T01:32:25.088Z,96249.44
2023-04-30T01:34:51.412Z,96256.50
2023-04-30T01:37:17.706Z,96258.94
2023-04-30T01:39:44.026Z,96252.22
2023-04-30T01:42:10.431Z,96265.63
2023-04-30T01:44:36.752Z,96264.19
2023-04-30T01:47:03.046Z,96266.88
2023-04-30T01:49:29.371Z,96270.41
2023-04-30T01:51:55.670Z,96261.63
2023-04-30T01:54:21.975Z,96268.09
2023-04-30T01:56:48.301Z,96269.47
2023-04-30T01:59:14.610Z,96271.16
2023-04-30T02:01:41.019Z,96267.97
2023-04-30T02:04:07.499Z,96269.31
2023-04-30T02:06:33.901Z,96267.34
2023-04-30T02:09:00.261Z,96263.09
2023-04-30T02:11:26.582Z,96265.63
2023-04-30T02:13:52.892Z,96261.09
2023-04-30T02:16:19.219Z,96270.41
2023-04-30T02:18:45.584Z,96262.41
2023-04-30T02:21:11.878Z,96259.47
2023-04-30T02:23:38.165Z,96259.25
2023-04-30T02:26:04.486Z,96258.94
2023-04-30T02:28:30.777Z,96257.19
2023-04-30T02:30:57.061Z,96259.03
2023-04-30T02:33:23.378Z,96269.66
2023-04-30T02:35:49.683Z,96263.84
2023-04-30T02:38:15.977Z,96270.63
2023-04-30T02:40:42.298Z,96269.28
2023-04-30T02:43:08.615Z,96275.31
2023-04-30T02:45:34.954Z,96266.84
2023-04-30T02:48:01.418Z,96273.00
2023-04-30T02:50:27.793Z,96273.97
2023-04-30T02:52:54.081Z,96273.53
2023-04-30T02:55:20.419Z,96269.28
2023-04-30T02:57:46.729Z,96258.56
2023-04-30T03:00:13.047Z,96262.28
2023-04-30T03:02:39.511Z,96257.72
2023-04-30T03:05:05.877Z,96246.56
2023-04-30T03:07:32.183Z,96250.75
2023-04-30T03:09:58.510Z,96243.91
2023-04-30T03:12:24.828Z,96254.09
2023-04-30T03:14:51.139Z,96247.78
2023-04-30T03:17:17.454Z,96241.56
2023-04-30T03:19:43.751Z,96238.84
2023-04-30T03:22:10.067Z,96234.69
2023-04-30T03:24:36.394Z,96241.44
2023-04-30T03:27:02.695Z,96238.53
2023-04-30T03:29:29.011Z,96241.75
2023-04-30T03:31:55.980Z,96244.91
2023-04-30T03:34:22.400Z,96240.81
2023-04-30T03:36:48.693Z,96241.81
2023-04-30T03:39:15.020Z,96235.44
2023-04-30T03:41:41.315Z,96235.91
2023-04-30T03:44:07.616Z,96232.19
2023-04-30T03:46:33.997Z,96236.63
2023-04-30T03:49:00.325Z,96236.84
2023-04-30T03:51:26.622Z,96238.81
2023-04-30T03:53:52.985Z,96246.41
2023-04-30T03:56:19.299Z,96248.16
2023-04-30T03:58:45.596Z,96241.47
2023-04-30T04:01:11.937Z,96250.00
2023-04-30T04:03:38.261Z,96242.16
2023-04-30T04:06:04.725Z,96246.19
2023-04-30T04:08:31.087Z,96253.75
2023-04-30T04:10:57.386Z,96250.31
2023-04-30T04:13:23.685Z,96242.06
2023-04-30T04:15:50.043Z,96240.25
2023-04-30T04:18:16.420Z,96243.94
2023-04-30T04:20:42.726Z,96240.03
2023-04-30T04:23:09.043Z,96241.81
2023-04-30T04:25:35.359Z,96238.69
2023-04-30T04:28:01.667Z,96247.84
2023-04-30T04:30:27.993Z,96250.66
2023-04-30T04:32:54.349Z,96250.53
2023-04-30T04:35:20.691Z,96253.31
2023-04-30T04:37:47.030Z,96253.88
2023-04-30T04:40:13.366Z,96262.41
2023-04-30T04:42:39.660Z,96259.47
2023-04-30T04:45:05.982Z,96256.25
2023-04-30T04:47:32.288Z,96256.56
2023-04-30T04:49:58.609Z,96264.28
2023-04-30T04:52:24.925Z,96272.88
2023-04-30T04:54:51.222Z,96267.50
2023-04-30T04:57:17.520Z,96275.31
2023-04-30T04:59:43.875Z,96279.25
2023-04-30T05:02:10.408Z,96270.16
2023-04-30T05:04:36.823Z,96272.09
2023-04-30T05:07:03.142Z,96286.47
2023-04-30T05:09:29.446Z,96280.22
2023-04-30T05:11:55.744Z,96288.06
2023-04-30T05:14:22.061Z,96287.28
2023-04-30T05:16:48.423Z,96281.41
2023-04-30T05:19:14.799Z,96280.69
2023-04-30T05:21:41.170Z,96278.78
2023-04-30T05:24:07.452Z,96276.56
2023-04-30T05:26:33.754Z,96280.72
2023-04-30T05:29:00.163Z,96289.22
2023-04-30T05:31:26.494Z,96285.59
2023-04-30T05:33:52.808Z,96284.13
2023-04-30T05:36:19.132Z,96288.94
2023-04-30T05:38:45.425Z,96282.78
2023-04-30T05:41:11.725Z,96294.53
2023-04-30T05:43:38.039Z,96287.66
2023-04-30T05:46:04.402Z,96286.75
2023-04-30T05:48:30.791Z,96279.88
2023-04-30T05:50:57.083Z,96276.13
2023-04-30T05:53:23.372Z,96278.56
2023-04-30T05:55:49.670Z,96278.19
2023-04-30T05:58:15.978Z,96272.97
2023-04-30T06:00:42.271Z,96269.97
2023-04-30T06:03:09.664Z,96272.38
2023-04-30T06:05:36.424Z,96270.63
2023-04-30T06:08:02.779Z,96275.66
2023-04-30T06:10:29.076Z,96283.16
2023-04-30T06:12:55.634Z,96276.25
2023-04-30T06:15:22.157Z,96275.56
2023-04-30T06:17:48.507Z,96275.03
2023-04-30T06:20:14.852Z,96277.34
2023-04-30T06:22:41.265Z,96276.56
2023-04-30T06:25:07.847Z,96278.38
2023-04-30T06:27:34.174Z,96277.94
2023-04-30T06:30:00.480Z,96280.94
2023-04-30T06:32:26.813Z,96271.44
2023-04-30T06:34:53.155Z,96276.00
2023-04-30T06:37:19.454Z,96285.41
2023-04-30T06:39:45.748Z,96282.84
2023-04-30T06:42:12.087Z,96279.38
2023-04-30T06:44:38.397Z,96284.53
2023-04-30T06:47:04.706Z,96277.50
2023-04-30T06:49:31.027Z,96281.50
2023-04-30T06:51:57.329Z,96279.81
2023-04-30T06:54:23.812Z,96275.47
2023-04-30T06:56:50.201Z,96275.91
2023-04-30T06:59:17.417Z,96273.56
2023-04-30T07:01:43.778Z,96264.84
2023-04-30T07:04:10.307Z,96263.97
2023-04-30T07:06:36.714Z,96270.31
2023-04-30T07:09:03.050Z,96266.53
2023-04-30T07:11:29.410Z,96267.88
2023-04-30T07:13:55.732Z,96269.53
2023-04-30T07:16:22.054Z,96264.44
2023-04-30T07:18:48.468Z,96269.53
2023-04-30T07:21:14.773Z,96270.44
2023-04-30T07:23:41.091Z,96270.66
2023-04-30T07:26:07.413Z,96259.78
2023-04-30T07:28:33.717Z,96255.25
2023-04-30T07:31:00.110Z,96258.25
2023-04-30T07:33:26.450Z,96247.06
2023-04-30T07:35:52.757Z,96248.88
2023-04-30T07:38:19.084Z,96257.59
2023-04-30T07:40:45.405Z,96242.22
2023-04-30T07:43:11.704Z,96242.63
2023-04-30T07:45:38.016Z,96240.50
2023-04-30T07:48:04.371Z,96241.25
2023-04-30T07:50:30.693Z,96249.44
2023-04-30T07:52:56.991Z,96250.69
2023-04-30T07:55:23.328Z,96254.94
2023-04-30T07:57:49.638Z,96257.34
2023-04-30T08:00:15.956Z,96269.91
2023-04-30T08:02:42.600Z,96258.66
2023-04-30T08:05:09.112Z,96276.09
2023-04-30T08:07:35.405Z,96254.94
2023-04-30T08:10:01.727Z,96256.38
2023-04-30T08:12:28.025Z,96270.41
2023-04-30T08:14:54.306Z,96263.13
2023-04-30T08:17:20.663Z,96268.38
2023-04-30T08:19:46.961Z,96269.06
2023-04-30T08:22:13.255Z,96259.50
2023-04-30T08:24:39.572Z,96263.63
2023-04-30T08:27:05.867Z,96268.16
2023-04-30T08:29:32.165Z,96268.25
2023-04-30T08:31:58.523Z,96266.69
2023-04-30T08:34:24.917Z,96270.13
2023-04-30T08:36:51.201Z,96268.03
2023-04-30T08:39:17.525Z,96271.28
2023-04-30T08:41:43.824Z,96274.09
2023-04-30T08:44:10.115Z,96275.38
2023-04-30T08:46:36.487Z,96264.31
2023-04-30T08:49:02.825Z,96266.50
2023-04-30T08:51:29.127Z,96273.94
2023-04-30T08:53:55.438Z,96260.47
2023-04-30T08:56:23.121Z,96267.47
2023-04-30T08:58:51.051Z,96275.72
2023-04-30T09:01:17.441Z,96269.44
2023-04-30T09:03:43.945Z,96268.19
2023-04-30T09:06:10.340Z,96262.53
2023-04-30T09:08:36.683Z,96273.88
2023-04-30T09:11:02.987Z,96263.75
2023-04-30T09:13:29.267Z,96280.72
2023-04-30T09:15:55.614Z,96280.97
2023-04-30T09:18:24.932Z,96280.66
2023-04-30T09:20:51.238Z,96273.47
2023-04-30T09:23:17.610Z,96267.97
2023-04-30T09:25:43.911Z,96279.25
2023-04-30T09:28:10.215Z,96275.75
2023-04-30T09:30:36.551Z,96275.38
2023-04-30T09:33:02.922Z,96279.03
2023-04-30T09:35:29.257Z,96285.69
2023-04-30T09:37:55.800Z,96275.97
2023-04-30T09:40:22.143Z,96276.84
2023-04-30T09:42:48.444Z,96267.34
2023-04-30T09:45:14.763Z,96263.13
2023-04-30T09:47:41.091Z,96261.75
2023-04-30T09:50:07.458Z,96266.75
2023-04-30T09:52:33.784Z,96268.94
2023-04-30T09:55:00.114Z,96266.44
2023-04-30T09:57:26.441Z,96263.63
2023-04-30T09:59:53.174Z,96270.94
2023-04-30T10:02:20.132Z,96268.31
2023-04-30T10:04:46.445Z,96259.56
2023-04-30T10:07:15.401Z,96266.13
2023-04-30T10:09:42.327Z,96257.66
2023-04-30T10:12:08.619Z,96252.50
2023-04-30T10:14:34.947Z,96256.09
2023-04-30T10:17:01.291Z,96253.88
2023-04-30T10:19:27.621Z,96256.34
2023-04-30T10:21:53.926Z,96251.06
2023-04-30T10:24:20.234Z,96242.31
2023-04-30T10:26:46.542Z,96245.91
2023-04-30T10:29:12.893Z,96249.22
2023-04-30T10:31:39.235Z,96252.34
2023-04-30T10:34:05.561Z,96255.13
2023-04-30T10:36:31.889Z,96249.19
2023-04-30T10:38:58.164Z,96251.88
2023-04-30T10:41:24.441Z,96244.63
2023-04-30T10:43:50.732Z,96248.03
2023-04-30T10:46:17.095Z,96243.41
2023-04-30T10:48:43.400Z,96243.31
2023-04-30T10:51:09.709Z,96246.75
2023-04-30T10:53:35.990Z,96244.19
2023-04-30T10:56:02.272Z,96243.16
2023-04-30T10:58:28.576Z,96247.63
2023-04-30T11:00:54.851Z,96243.88
2023-04-30T11:03:21.125Z,96241.38
2023-04-30T11:05:47.457Z,96239.75
2023-04-30T11:08:13.867Z,96240.53
2023-04-30T11:10:40.157Z,96232.81
2023-04-30T11:13:06.508Z,96240.91
2023-04-30T11:15:32.854Z,96243.91
2023-04-30T11:17:59.255Z,96248.41
2023-04-30T11:20:25.586Z,96242.25
2023-04-30T11:22:51.866Z,96244.25
2023-04-30T11:25:18.156Z,96233.56
2023-04-30T11:27:44.451Z,96238.41
2023-04-30T11:30:10.801Z,96239.91
2023-04-30T11:32:37.245Z,96233.41
2023-04-30T11:35:03.717Z,96232.63
2023-04-30T11:37:30.013Z,96229.00
2023-04-30T11:39:56.572Z,96222.06
2023-04-30T11:42:23.032Z,96228.63
2023-04-30T11:44:49.343Z,96225.31
2023-04-30T11:47:15.794Z,96228.75
2023-04-30T11:49:42.124Z,96221.00
2023-04-30T11:52:08.436Z,96224.41
2023-04-30T11:54:34.755Z,96229.97
2023-04-30T11:57:01.095Z,96224.47
2023-04-30T11:59:27.386Z,96224.66
2023-04-30T12:01:53.728Z,96223.38
2023-04-30T12:04:20.131Z,96234.19
2023-04-30T12:06:46.506Z,96237.66
2023-04-30T12:09:12.838Z,96236.59
2023-04-30T12:11:39.196Z,96241.47
2023-04-30T12:14:05.622Z,96230.19
2023-04-30T12:16:32.052Z,96230.38
2023-04-30T12:18:58.803Z,96226.78
2023-04-30T12:21:25.165Z,96236.97
2023-04-30T12:23:51.459Z,96226.22
2023-04-30T12:26:17.845Z,96235.41
2023-04-30T12:28:44.296Z,96235.06
2023-04-30T12:31:10.591Z,96239.56
2023-04-30T12:33:36.917Z,96251.59
2023-04-30T12:36:03.222Z,96250.44
2023-04-30T12:38:29.520Z,96257.31
2023-04-30T12:40:55.865Z,96247.56
2023-04-30T12:43:22.154Z,96245.53
2023-04-30T12:45:48.545Z,96251.25
2023-04-30T12:48:14.984Z,96241.31
2023-04-30T12:50:41.354Z,96235.13
2023-04-30T12:53:07.697Z,96239.00
2023-04-30T12:55:34.077Z,96252.88
2023-04-30T12:58:00.366Z,96241.59
2023-04-30T13:00:26.661Z,96251.84
2023-04-30T13:02:53.067Z,96256.91
2023-04-30T13:05:19.455Z,96250.72
2023-04-30T13:07:45.748Z,96247.47
2023-04-30T13:10:12.073Z,96250.59
2023-04-30T13:12:38.356Z,96244.25
2023-04-30T13:15:04.664Z,96235.34
2023-04-30T13:17:31.035Z,96236.44
2023-04-30T13:19:57.527Z,96234.94
2023-04-30T13:22:23.945Z,96238.97
2023-04-30T13:24:50.250Z,96234.94
2023-04-30T13:27:16.542Z,96239.00
2023-04-30T13:29:42.846Z,96226.75
2023-04-30T13:32:09.155Z,96233.72
2023-04-30T13:34:35.454Z,96223.66
2023-04-30T13:37:01.752Z,96225.75
2023-04-30T13:39:28.073Z,96227.19
2023-04-30T13:41:54.374Z,96221.13
2023-04-30T13:44:20.666Z,96225.69
2023-04-30T13:46:47.057Z,96220.84
2023-04-30T13:49:13.426Z,96219.34
2023-04-30T13:51:39.753Z,96213.16
2023-04-30T13:54:06.088Z,96221.72
2023-04-30T13:56:32.389Z,96211.16
2023-04-30T13:58:58.684Z,96214.16
2023-04-30T14:01:25.070Z,96208.44
2023-04-30T14:03:51.478Z,96208.34
2023-04-30T14:06:17.862Z,96209.06
2023-04-30T14:08:44.224Z,96206.94
2023-04-30T14:11:10.541Z,96207.28
2023-04-30T14:13:36.842Z,96210.41
2023-04-30T14:16:03.236Z,96200.44
2023-04-30T14:18:29.620Z,96202.06
2023-04-30T14:20:55.924Z,96205.97
2023-04-30T14:23:23.149Z,96203.00
2023-04-30T14:25:49.796Z,96211.53
2023-04-30T14:28:16.081Z,96215.28
2023-04-30T14:30:42.417Z,96212.81
2023-04-30T14:33:09.125Z,96218.94
2023-04-30T14:35:35.415Z,96204.69
2023-04-30T14:38:01.737Z,96211.69
2023-04-30T14:40:28.034Z,96211.06
2023-04-30T14:42:54.332Z,96210.47
2023-04-30T14:45:20.665Z,96203.56
2023-04-30T14:47:47.009Z,96204.31
2023-04-30T14:50:13.558Z,96193.34
2023-04-30T14:52:39.957Z,96205.31
2023-04-30T14:55:06.262Z,96205.81
2023-04-30T14:57:32.566Z,96214.78
2023-04-30T14:59:58.886Z,96212.75
2023-04-30T15:02:25.248Z,96208.72
2023-04-30T15:04:51.615Z,96208.69
2023-04-30T15:07:17.945Z,96204.50
2023-04-30T15:09:44.239Z,96201.81
2023-04-30T15:12:10.522Z,96204.22
2023-04-30T15:14:36.855Z,96198.19
2023-04-30T15:17:03.141Z,96202.56
2023-04-30T15:19:29.534Z,96196.22
2023-04-30T15:21:55.845Z,96205.38
2023-04-30T15:24:22.215Z,96198.50
2023-04-30T15:26:48.531Z,96199.66
2023-04-30T15:29:14.853Z,96203.38
2023-04-30T15:31:41.296Z,96204.00
2023-04-30T15:34:07.645Z,96209.44
2023-04-30T15:36:33.975Z,96205.69
2023-04-30T15:39:00.265Z,96206.06
2023-04-30T15:41:26.558Z,96208.63
2023-04-30T15:43:53.277Z,96208.81
2023-04-30T15:46:19.784Z,96199.22
2023-04-30T15:48:46.127Z,96204.06
2023-04-30T15:51:12.462Z,96208.44
2023-04-30T15:53:38.885Z,96215.31
2023-04-30T15:56:05.207Z,96206.31
2023-04-30T15:58:31.559Z,96207.22
2023-04-30T16:00:57.863Z,96206.59
2023-04-30T16:03:24.374Z,96206.41
2023-04-30T16:05:50.803Z,96207.84
2023-04-30T16:08:17.099Z,96219.91
2023-04-30T16:10:43.399Z,96214.84
2023-04-30T16:13:09.707Z,96213.19
2023-04-30T16:15:36.058Z,96205.66
2023-04-30T16:18:02.516Z,96211.88
2023-04-30T16:20:29.248Z,96201.78
2023-04-30T16:22:55.579Z,96211.78
2023-04-30T16:25:21.875Z,96213.97
2023-04-30T16:27:48.193Z,96206.38
2023-04-30T16:30:14.506Z,96213.41
2023-04-30T16:32:40.867Z,96213.47
2023-04-30T16:35:07.207Z,96211.00
2023-04-30T16:37:33.499Z,96207.66
2023-04-30T16:39:59.789Z,96209.06
2023-04-30T16:42:26.114Z,96212.84
2023-04-30T16:44:52.410Z,96201.19
2023-04-30T16:47:18.712Z,96210.25
2023-04-30T16:49:45.047Z,96208.13
2023-04-30T16:52:11.346Z,96204.84
2023-04-30T16:54:37.626Z,96205.97
2023-04-30T16:57:03.941Z,96196.72
2023-04-30T16:59:30.262Z,96213.38
2023-04-30T17:01:56.564Z,96218.97
2023-04-30T17:04:22.915Z,96213.66
2023-04-30T17:06:49.417Z,96208.44
2023-04-30T17:09:15.801Z,96207.06
2023-04-30T17:11:42.143Z,96213.97
2023-04-30T17:14:08.454Z,96206.25
2023-04-30T17:16:34.877Z,96208.03
2023-04-30T17:19:01.246Z,96212.88
2023-04-30T17:21:27.536Z,96218.56
2023-04-30T17:23:53.866Z,96210.41
2023-04-30T17:26:20.193Z,96213.16
2023-04-30T17:28:46.475Z,96209.84
2023-04-30T17:31:12.812Z,96213.75
2023-04-30T17:33:39.630Z,96213.81
2023-04-30T17:36:06.719Z,96213.63
2023-04-30T17:38:33.019Z,96215.06
2023-04-30T17:40:59.364Z,96210.19
2023-04-30T17:43:25.672Z,96217.59
2023-04-30T17:45:51.991Z,96210.09
2023-04-30T17:48:18.383Z,96202.13
2023-04-30T17:50:44.680Z,96217.09
2023-04-30T17:53:10.980Z,96211.16
2023-04-30T17:55:37.300Z,96210.41
2023-04-30T17:58:03.601Z,96206.75
2023-04-30T18:00:29.899Z,96224.19
2023-04-30T18:02:56.339Z,96217.78
2023-04-30T18:05:22.693Z,96221.97
2023-04-30T18:07:49.014Z,96219.63
2023-04-30T18:10:15.371Z,96226.66
2023-04-30T18:12:41.661Z,96225.75
2023-04-30T18:15:07.982Z,96222.94
2023-04-30T18:17:36.463Z,96226.97
2023-04-30T18:20:03.587Z,96229.78
2023-04-30T18:22:29.894Z,96219.94
2023-04-30T18:24:56.233Z,96228.25
2023-04-30T18:27:22.551Z,96219.84
2023-04-30T18:29:48.856Z,96231.66
2023-04-30T18:32:15.300Z,96221.81
2023-04-30T18:34:41.694Z,96227.44
2023-04-30T18:37:08.095Z,96228.25
2023-04-30T18:39:34.437Z,96222.59
2023-04-30T18:42:00.721Z,96228.22
2023-04-30T18:44:27.017Z,96229.34
2023-04-30T18:46:53.343Z,96224.03
2023-04-30T18:49:19.648Z,96231.53
2023-04-30T18:51:45.938Z,96233.41
2023-04-30T18:54:12.242Z,96231.84
2023-04-30T18:56:38.546Z,96233.75
2023-04-30T18:59:05.284Z,96230.78
2023-04-30T19:01:31.690Z,96230.50
2023-04-30T19:03:58.086Z,96231.44
2023-04-30T19:06:24.504Z,96227.03
2023-04-30T19:08:50.938Z,96227.03
2023-04-30T19:11:17.239Z,96233.31
2023-04-30T19:13:43.711Z,96233.47
2023-04-30T19:16:10.117Z,96235.66
2023-04-30T19:18:36.470Z,96240.31
2023-04-30T19:21:02.778Z,96237.22
2023-04-30T19:23:29.102Z,96245.34
2023-04-30T19:25:55.406Z,96240.81
2023-04-30T19:28:21.697Z,96246.59
2023-04-30T19:30:48.055Z,96244.09
2023-04-30T19:33:14.402Z,96246.59
2023-04-30T19:35:40.758Z,96248.47
2023-04-30T19:38:07.103Z,96256.44
2023-04-30T19:40:33.396Z,96250.84
2023-04-30T19:42:59.701Z,96248.47
2023-04-30T19:45:26.168Z,96253.00
2023-04-30T19:47:52.563Z,96260.81
2023-04-30T19:50:18.874Z,96252.84
2023-04-30T19:52:45.190Z,96260.34
2023-04-30T19:55:11.485Z,96263.00
2023-04-30T19:57:37.780Z,96260.81
2023-04-30T20:00:04.120Z,96255.50
2023-04-30T20:02:30.480Z,96254.25
2023-04-30T20:04:57.095Z,96266.44
2023-04-30T20:07:23.452Z,96263.75
2023-04-30T20:09:49.746Z,96261.41
2023-04-30T20:12:16.038Z,96264.84
2023-04-30T20:14:42.348Z,96261.69
2023-04-30T20:17:08.649Z,96271.00
2023-04-30T20:19:34.953Z,96262.94
2023-04-30T20:22:01.329Z,96263.00
2023-04-30T20:24:27.630Z,96266.75
2023-04-30T20:26:53.942Z,96264.72
2023-04-30T20:29:20.259Z,96276.53
2023-04-30T20:31:46.635Z,96266.72
2023-04-30T20:34:12.962Z,96265.47
2023-04-30T20:36:39.290Z,96254.75
2023-04-30T20:39:05.587Z,96269.06
2023-04-30T20:41:31.911Z,96261.59
2023-04-30T20:43:58.227Z,96263.94
2023-04-30T20:46:24.794Z,96271.56
2023-04-30T20:48:51.111Z,96259.34
2023-04-30T20:51:17.429Z,96259.84
2023-04-30T20:53:43.735Z,96261.00
2023-04-30T20:56:10.029Z,96261.88
2023-04-30T20:58:36.347Z,96257.41
2023-04-30T21:01:02.664Z,96262.34
2023-04-30T21:03:29.015Z,96249.94
2023-04-30T21:05:55.453Z,96254.56
2023-04-30T21:08:21.923Z,96258.38
2023-04-30T21:10:48.226Z,96251.44
2023-04-30T21:13:14.543Z,96243.66
2023-04-30T21:15:40.850Z,96252.13
2023-04-30T21:18:07.203Z,96254.50
2023-04-30T21:20:33.602Z,96242.75
2023-04-30T21:22:59.952Z,96249.13
2023-04-30T21:25:26.350Z,96253.59
2023-04-30T21:27:52.746Z,96247.31
2023-04-30T21:30:19.055Z,96251.78
2023-04-30T21:32:45.474Z,96245.47
2023-04-30T21:35:12.000Z,96247.22
2023-04-30T21:37:38.359Z,96246.06
2023-04-30T21:40:04.891Z,96248.34
2023-04-30T21:42:31.250Z,96252.25
2023-04-30T21:44:58.724Z,96250.31
2023-04-30T21:47:25.032Z,96249.19
2023-04-30T21:49:51.411Z,96253.13
2023-04-30T21:52:17.711Z,96250.06
2023-04-30T21:54:44.012Z,96246.53
2023-04-30T21:57:10.345Z,96246.25
2023-04-30T21:59:36.646Z,96247.72
2023-04-30T22:02:07.301Z,96243.50
2023-04-30T22:04:39.571Z,96241.53
2023-04-30T22:07:05.872Z,96240.88
2023-04-30T22:09:32.160Z,96242.28
2023-04-30T22:11:58.485Z,96240.97
2023-04-30T22:14:28.102Z,96232.09
2023-04-30T22:16:54.451Z,96241.38
2023-04-30T22:19:20.818Z,96234.22
2023-04-30T22:21:47.111Z,96231.16
2023-04-30T22:24:13.419Z,96230.75
2023-04-30T22:26:39.738Z,96233.28
2023-04-30T22:29:06.058Z,96223.13
2023-04-30T22:31:32.387Z,96227.09
2023-04-30T22:33:58.752Z,96226.59
2023-04-30T22:36:25.052Z,96226.88
2023-04-30T22:38:51.360Z,96229.47
2023-04-30T22:41:17.686Z,96229.41
2023-04-30T22:43:43.982Z,96226.97
2023-04-30T22:46:10.279Z,96224.84
2023-04-30T22:48:36.600Z,96229.66
2023-04-30T22:51:05.924Z,96227.91
2023-04-30T22:53:32.232Z,96225.44
2023-04-30T22:55:58.588Z,96229.31
2023-04-30T22:58:24.900Z,96231.81
2023-04-30T23:00:51.230Z,96227.75
2023-04-30T23:03:17.582Z,96221.13
2023-04-30T23:05:43.866Z,96224.00
2023-04-30T23:08:10.239Z,96228.72
2023-04-30T23:10:36.572Z,96230.84
2023-04-30T23:13:02.870Z,96230.97
2023-04-30T23:15:29.182Z,96228.63
2023-04-30T23:17:55.523Z,96224.72
2023-04-30T23:20:21.833Z,96224.31
2023-04-30T23:22:48.149Z,96227.72
2023-04-30T23:25:14.469Z,96224.25
2023-04-30T23:27:40.772Z,96228.28
2023-04-30T23:30:07.074Z,96223.94
2023-04-30T23:32:33.544Z,96228.69
2023-04-30T23:34:59.901Z,96227.50
2023-04-30T23:37:26.199Z,96238.56
2023-04-30T23:39:52.567Z,96232.81
2023-04-30T23:42:18.878Z,96233.78
2023-04-30T23:44:45.176Z,96231.22
2023-04-30T23:47:11.541Z,96231.78
2023-04-30T23:49:37.851Z,96229.31
2023-04-30T23:52:04.146Z,96228.53
2023-04-30T23:54:30.468Z,96233.78
2023-04-30T23:56:56.766Z,96230.78
2023-04-30T23:59:23.069Z,96232.84
